Time;durP1;ratioP1;P1;durP2;ratioP2;P2;SDS_P1;SDS_P2;PMS_P1;PMS_P2;Temp;Humidity;BMP_temperature;BMP_pressure;BME280_temperature;BME280_humidity;BME280_pressure;Samples;Min_cycle;Max_cycle;Signal;HPM_P1;HPM_P2
2022/10/16 00:00:17;;;;;;;;;;;;;;;;;;6261826;22;20232;-89
2022/10/16 00:02:43;;;;;;;;;;;;;;;;;;6290346;22;19919;-89
2022/10/16 00:05:10;;;;;;;;;;;;;;;;;;6285547;22;19925;-90
2022/10/16 00:07:37;;;;;;;;;;;;;;;;;;6266862;22;20597;-89
2022/10/16 00:10:04;;;;;;;;;;;;;;;;;;6238579;22;20012;-90
2022/10/16 00:12:31;;;;;;;;;;;;;;;;;;6239974;22;19960;-89
2022/10/16 00:15:01;;;;;;;;;;;;;;;;;;6237265;22;19930;-89
2022/10/16 00:17:28;;;;;;;;;;;;;;;;;;6287712;22;19957;-89
2022/10/16 00:20:07;;;;;;;;;;;;;;;;;;6287541;22;19919;-89
2022/10/16 00:22:37;;;;;;;;;;;;;;;;;;6289939;22;19918;-89
2022/10/16 00:25:05;;;;;;;;;;;;;;;;;;6288202;22;19926;-89
2022/10/16 00:27:34;;;;;;;;;;;;;;;;;;6294064;22;19926;-89
2022/10/16 00:30:04;;;;;;;;;;;;;;;;;;6289531;22;20250;-89
2022/10/16 00:32:31;;;;;;;;;;;;;;;;;;6289251;22;19948;-89
2022/10/16 00:34:59;;;;;;;;;;;;;;;;;;6285257;22;19919;-89
2022/10/16 00:37:26;;;;;;;;;;;;;;;;;;6265662;22;19918;-90
2022/10/16 00:39:56;;;;;;;;;;;;;;;;;;6264825;22;19923;-90
2022/10/16 00:42:23;;;;;;;;;;;;;;;;;;6263364;22;19919;-90
2022/10/16 00:44:56;;;;;;;;;;;;;;;;;;6290304;22;19919;-89
2022/10/16 00:47:25;;;;;;;;;;;;;;;;;;6289947;22;20232;-90
2022/10/16 00:49:55;;;;;;;;;;;;;;;;;;6291895;22;19953;-89
2022/10/16 00:52:22;;;;;;;;;;;;;;;;;;6262766;22;19923;-89
2022/10/16 00:54:54;;;;;;;;;;;;;;;;;;6270221;22;19946;-89
2022/10/16 00:57:29;;;;;;;;;;;;;;;;;;6259704;22;19919;-89
2022/10/16 00:59:58;;;;;;;;;;;;;;;;;;6254579;23;19922;-89
2022/10/16 01:02:44;;;;;;;;;;;;;;;;;;6232888;23;20014;-89
2022/10/16 01:05:14;;;;;;;;;;;;;;;;;;6202909;23;20026;-89
2022/10/16 01:07:54;;;;;;;;;;;;;;;;;;6201256;23;19930;-89
2022/10/16 01:10:25;;;;;;;;;;;;;;;;;;6226598;23;19926;-89
2022/10/16 01:12:55;;;;;;;;;;;;;;;;;;6202301;23;19974;-89
2022/10/16 01:15:28;;;;;;;;;;;;;;;;;;6231295;23;20041;-89
2022/10/16 01:17:54;;;;;;;;;;;;;;;;;;6226484;23;19995;-89
2022/10/16 01:20:34;;;;;;;;;;;;;;;;;;6227156;23;19915;-89
2022/10/16 01:23:01;;;;;;;;;;;;;;;;;;6198378;23;19923;-89
2022/10/16 01:25:28;;;;;;;;;;;;;;;;;;6201299;23;19951;-89
2022/10/16 01:27:56;;;;;;;;;;;;;;;;;;6200929;23;20333;-89
2022/10/16 01:30:22;;;;;;;;;;;;;;;;;;6219077;22;19915;-89
2022/10/16 01:32:49;;;;;;;;;;;;;;;;;;6289571;22;19923;-88
2022/10/16 01:35:17;;;;;;;;;;;;;;;;;;6290534;22;19964;-88
2022/10/16 01:37:44;;;;;;;;;;;;;;;;;;6265904;22;20194;-88
2022/10/16 01:40:22;;;;;;;;;;;;;;;;;;;;;
2022/10/16 01:42:50;;;;;;;;;;;;;;;;;;6288328;22;20067;-89
2022/10/16 01:45:17;;;;;;;;;;;;;;;;;;6261863;22;19915;-89
2022/10/16 01:47:51;;;;;;;;;;;;;;;;;;6289910;22;19926;-89
2022/10/16 01:50:18;;;;;;;;;;;;;;;;;;6266387;22;20347;-89
2022/10/16 01:52:44;;;;;;;;;;;;;;;;;;6266505;22;20405;-89
2022/10/16 01:55:24;;;;;;;;;;;;;;;;;;6291545;22;19995;-89
2022/10/16 01:58:11;;;;;;;;;;;;;;;;;;6198325;23;19939;-89
2022/10/16 02:00:38;;;;;;;;;;;;;;;;;;6178096;23;20343;-89
2022/10/16 02:03:09;;;;;;;;;;;;;;;;;;6173762;23;19951;-89
2022/10/16 02:05:36;;;;;;;;;;;;;;;;;;6178980;23;19990;-89
2022/10/16 02:08:02;;;;;;;;;;;;;;;;;;6173278;23;19919;-89
2022/10/16 02:10:30;;;;;;;;;;;;;;;;;;6175311;23;20253;-89
2022/10/16 02:12:59;;;;;;;;;;;;;;;;;;6197022;23;19920;-89
2022/10/16 02:15:26;;;;;;;;;;;;;;;;;;6174921;22;19919;-89
2022/10/16 02:17:57;;;;;;;;;;;;;;;;;;6222986;23;19919;-89
2022/10/16 02:20:24;;;;;;;;;;;;;;;;;;6200923;23;19969;-89
2022/10/16 02:23:01;;;;;;;;;;;;;;;;;;6197886;23;19920;-89
2022/10/16 02:25:28;;;;;;;;;;;;;;;;;;6225474;22;19919;-88
2022/10/16 02:27:55;;;;;;;;;;;;;;;;;;6174229;23;20423;-89
2022/10/16 02:30:22;;;;;;;;;;;;;;;;;;6176895;23;19994;-89
2022/10/16 02:32:53;;;;;;;;;;;;;;;;;;6198120;23;19919;-89
2022/10/16 02:35:23;;;;;;;;;;;;;;;;;;6225965;23;19923;-89
2022/10/16 02:37:50;;;;;;;;;;;;;;;;;;6201386;23;19922;-89
2022/10/16 02:40:17;;;;;;;;;;;;;;;;;;6173011;23;19920;-89
2022/10/16 02:42:45;;;;;;;;;;;;;;;;;;6244538;22;20414;-89
2022/10/16 02:45:11;;;;;;;;;;;;;;;;;;6261330;22;19923;-89
2022/10/16 02:47:38;;;;;;;;;;;;;;;;;;6263672;22;19926;-88
2022/10/16 02:50:04;;;;;;;;;;;;;;;;;;6259207;22;19919;-89
2022/10/16 02:52:31;;;;;;;;;;;;;;;;;;6289351;22;19925;-89
2022/10/16 02:55:04;;;;;;;;;;;;;;;;;;6292488;22;19923;-89
2022/10/16 02:57:31;;;;;;;;;;;;;;;;;;6267273;22;19972;-89
2022/10/16 03:00:01;;;;;;;;;;;;;;;;;;6287299;22;20005;-89
2022/10/16 03:02:41;;;;;;;;;;;;;;;;;;6292537;22;19919;-89
2022/10/16 03:05:08;;;;;;;;;;;;;;;;;;6264435;22;19925;-89
2022/10/16 03:07:36;;;;;;;;;;;;;;;;;;6266331;22;20294;-89
2022/10/16 03:10:06;;;;;;;;;;;;;;;;;;6289887;22;19915;-89
2022/10/16 03:12:33;;;;;;;;;;;;;;;;;;6265647;22;19961;-89
2022/10/16 03:15:00;;;;;;;;;;;;;;;;;;6264398;22;19915;-89
2022/10/16 03:17:28;;;;;;;;;;;;;;;;;;6263822;22;19926;-89
2022/10/16 03:19:55;;;;;;;;;;;;;;;;;;6290581;22;20297;-89
2022/10/16 03:22:23;;;;;;;;;;;;;;;;;;6290544;22;19923;-89
2022/10/16 03:24:50;;;;;;;;;;;;;;;;;;6266978;22;19948;-89
2022/10/16 03:27:29;;;;;;;;;;;;;;;;;;6290842;22;20244;-89
2022/10/16 03:29:56;;;;;;;;;;;;;;;;;;6286801;22;19919;-89
2022/10/16 03:32:24;;;;;;;;;;;;;;;;;;6265898;22;19989;-89
2022/10/16 03:34:54;;;;;;;;;;;;;;;;;;6293438;22;19926;-89
2022/10/16 03:37:24;;;;;;;;;;;;;;;;;;6290645;22;19919;-88
2022/10/16 03:39:51;;;;;;;;;;;;;;;;;;6266414;22;19918;-88
2022/10/16 03:42:21;;;;;;;;;;;;;;;;;;6262058;22;19919;-89
2022/10/16 03:44:49;;;;;;;;;;;;;;;;;;6292965;22;19942;-88
2022/10/16 03:47:20;;;;;;;;;;;;;;;;;;6264200;22;19947;-90
2022/10/16 03:49:46;;;;;;;;;;;;;;;;;;6290277;22;19972;-89
2022/10/16 03:52:31;;;;;;;;;;;;;;;;;;6291443;22;19984;-88
2022/10/16 03:54:59;;;;;;;;;;;;;;;;;;6291269;22;19967;-88
2022/10/16 03:57:26;;;;;;;;;;;;;;;;;;6268477;22;19915;-89
2022/10/16 03:59:56;;;;;;;;;;;;;;;;;;6293546;22;19954;-89
2022/10/16 04:02:23;;;;;;;;;;;;;;;;;;6267226;22;20320;-89
2022/10/16 04:04:54;;;;;;;;;;;;;;;;;;6293794;22;20240;-88
2022/10/16 04:07:21;;;;;;;;;;;;;;;;;;6293000;22;19915;-89
2022/10/16 04:09:51;;;;;;;;;;;;;;;;;;6267771;22;19919;-88
2022/10/16 04:12:23;;;;;;;;;;;;;;;;;;6292739;22;20335;-89
2022/10/16 04:14:49;;;;;;;;;;;;;;;;;;6266991;22;19997;-89
2022/10/16 04:17:17;;;;;;;;;;;;;;;;;;6264379;22;20273;-88
2022/10/16 04:19:53;;;;;;;;;;;;;;;;;;6296351;22;20320;-89
2022/10/16 04:22:20;;;;;;;;;;;;;;;;;;6267733;22;19926;-89
2022/10/16 04:24:58;;;;;;;;;;;;;;;;;;6268762;22;19980;-89
2022/10/16 04:27:25;;;;;;;;;;;;;;;;;;6293903;22;20708;-89
2022/10/16 04:29:57;;;;;;;;;;;;;;;;;;6296221;22;19993;-89
2022/10/16 04:32:24;;;;;;;;;;;;;;;;;;6267744;22;19973;-89
2022/10/16 04:34:51;;;;;;;;;;;;;;;;;;6268190;22;19998;-89
2022/10/16 04:37:32;;;;;;;;;;;;;;;;;;6230956;23;20595;-89
2022/10/16 04:39:59;;;;;;;;;;;;;;;;;;6227891;23;19915;-88
2022/10/16 04:42:28;;;;;;;;;;;;;;;;;;6230484;23;19916;-88
2022/10/16 04:45:04;;;;;;;;;;;;;;;;;;6230205;23;20351;-89
2022/10/16 04:47:31;;;;;;;;;;;;;;;;;;6227524;23;19931;-89
2022/10/16 04:50:02;;;;;;;;;;;;;;;;;;6226607;23;20238;-89
2022/10/16 04:52:28;;;;;;;;;;;;;;;;;;6226856;23;19947;-89
2022/10/16 04:55:01;;;;;;;;;;;;;;;;;;6228602;23;19965;-89
2022/10/16 04:57:29;;;;;;;;;;;;;;;;;;6233007;23;20414;-89
2022/10/16 04:59:56;;;;;;;;;;;;;;;;;;6231245;23;19958;-90
2022/10/16 05:02:22;;;;;;;;;;;;;;;;;;6230260;23;19920;-89
2022/10/16 05:04:49;;;;;;;;;;;;;;;;;;6231839;23;20257;-89
2022/10/16 05:07:16;;;;;;;;;;;;;;;;;;6229307;23;19920;-89
2022/10/16 05:09:45;;;;;;;;;;;;;;;;;;6293067;22;20304;-89
2022/10/16 05:12:16;;;;;;;;;;;;;;;;;;6265035;22;19919;-89
2022/10/16 05:14:58;;;;;;;;;;;;;;;;;;6291942;22;19919;-90
2022/10/16 05:17:27;;;;;;;;;;;;;;;;;;6321196;22;19964;-89
2022/10/16 05:19:54;;;;;;;;;;;;;;;;;;6301645;22;20331;-89
2022/10/16 05:22:21;;;;;;;;;;;;;;;;;;6273913;22;19922;-89
2022/10/16 05:24:48;;;;;;;;;;;;;;;;;;6274088;22;19989;-89
2022/10/16 05:27:18;;;;;;;;;;;;;;;;;;6267317;22;20460;-89
2022/10/16 05:29:55;;;;;;;;;;;;;;;;;;6321854;22;20337;-89
2022/10/16 05:32:31;;;;;;;;;;;;;;;;;;6290362;22;20006;-89
2022/10/16 05:34:59;;;;;;;;;;;;;;;;;;6292319;22;19922;-89
2022/10/16 05:37:27;;;;;;;;;;;;;;;;;;6294982;22;19918;-89
2022/10/16 05:39:53;;;;;;;;;;;;;;;;;;6269731;22;20358;-89
2022/10/16 05:42:38;;;;;;;;;;;;;;;;;;6299346;22;19914;-89
2022/10/16 05:45:08;;;;;;;;;;;;;;;;;;6294245;22;20009;-89
2022/10/16 05:47:35;;;;;;;;;;;;;;;;;;6291528;22;19958;-88
2022/10/16 05:50:03;;;;;;;;;;;;;;;;;;6288324;22;19971;-89
2022/10/16 05:52:31;;;;;;;;;;;;;;;;;;6260862;22;19918;-89
2022/10/16 05:54:56;;;;;;;;;;;;;;;;;;6288676;22;19939;-90
2022/10/16 05:57:24;;;;;;;;;;;;;;;;;;6238796;22;20725;-89
2022/10/16 05:59:51;;;;;;;;;;;;;;;;;;6236942;22;19949;-88
2022/10/16 06:02:18;;;;;;;;;;;;;;;;;;6234469;22;19922;-89
2022/10/16 06:04:45;;;;;;;;;;;;;;;;;;6290159;22;19952;-89
2022/10/16 06:07:13;;;;;;;;;;;;;;;;;;6235574;22;19998;-89
2022/10/16 06:09:48;;;;;;;;;;;;;;;;;;6265414;22;20402;-88
2022/10/16 06:15:43;;;;;;;;;;;;;;;;;;;;;
2022/10/16 06:18:34;;;;;;;;;;;;;;;;;;6236086;22;19933;-90
2022/10/16 06:21:12;;;;;;;;;;;;;;;;;;6260616;22;19962;-89
2022/10/16 06:23:54;;;;;;;;;;;;;;;;;;6217603;22;20012;-89
2022/10/16 06:26:33;;;;;;;;;;;;;;;;;;6264317;22;19926;-88
2022/10/16 06:29:00;;;;;;;;;;;;;;;;;;6264075;22;20074;-88
2022/10/16 06:31:30;;;;;;;;;;;;;;;;;;6263276;22;20352;-89
2022/10/16 06:34:08;;;;;;;;;;;;;;;;;;6260413;22;19919;-89
2022/10/16 06:36:47;;;;;;;;;;;;;;;;;;6290143;22;19972;-88
2022/10/16 06:39:15;;;;;;;;;;;;;;;;;;6261559;22;20529;-88
2022/10/16 06:41:42;;;;;;;;;;;;;;;;;;6290315;22;19925;-88
2022/10/16 06:44:08;;;;;;;;;;;;;;;;;;6262785;22;19924;-88
2022/10/16 06:46:41;;;;;;;;;;;;;;;;;;6290221;22;19923;-89
2022/10/16 06:49:08;;;;;;;;;;;;;;;;;;6262272;22;20004;-89
2022/10/16 06:51:40;;;;;;;;;;;;;;;;;;6290181;22;19970;-89
2022/10/16 06:54:08;;;;;;;;;;;;;;;;;;6266688;22;19914;-89
2022/10/16 06:56:35;;;;;;;;;;;;;;;;;;6297145;22;20005;-89
2022/10/16 06:59:02;;;;;;;;;;;;;;;;;;6268209;22;19918;-89
2022/10/16 07:01:30;;;;;;;;;;;;;;;;;;6295150;22;19958;-89
2022/10/16 07:03:57;;;;;;;;;;;;;;;;;;6265745;22;19915;-89
2022/10/16 07:06:28;;;;;;;;;;;;;;;;;;6290609;22;19926;-89
2022/10/16 07:08:55;;;;;;;;;;;;;;;;;;6287342;22;19919;-89
2022/10/16 07:11:22;;;;;;;;;;;;;;;;;;6293440;22;19923;-89
2022/10/16 07:13:49;;;;;;;;;;;;;;;;;;6267534;22;19926;-89
2022/10/16 07:16:17;;;;;;;;;;;;;;;;;;6294532;22;19930;-89
2022/10/16 07:18:45;;;;;;;;;;;;;;;;;;6272751;22;19998;-89
2022/10/16 07:21:13;;;;;;;;;;;;;;;;;;6294962;22;19918;-89
2022/10/16 07:23:40;;;;;;;;;;;;;;;;;;6270631;22;19922;-89
2022/10/16 07:26:07;;;;;;;;;;;;;;;;;;6270787;22;20508;-90
2022/10/16 07:28:35;;;;;;;;;;;;;;;;;;6299298;22;19918;-89
2022/10/16 07:31:03;;;;;;;;;;;;;;;;;;6227421;23;19927;-89
2022/10/16 07:33:44;;;;;;;;;;;;;;;;;;6140810;23;20313;-89
2022/10/16 07:36:24;;;;;;;;;;;;;;;;;;6114945;23;19927;-89
2022/10/16 07:38:51;;;;;;;;;;;;;;;;;;6091198;23;19929;-89
2022/10/16 07:41:18;;;;;;;;;;;;;;;;;;6138643;23;19921;-89
2022/10/16 07:43:46;;;;;;;;;;;;;;;;;;6115921;23;20034;-89
2022/10/16 07:46:13;;;;;;;;;;;;;;;;;;6138040;23;19925;-89
2022/10/16 07:48:40;;;;;;;;;;;;;;;;;;6090316;23;20358;-89
2022/10/16 07:51:07;;;;;;;;;;;;;;;;;;6086825;23;20334;-89
2022/10/16 07:53:35;;;;;;;;;;;;;;;;;;6091378;23;20020;-89
2022/10/16 07:56:02;;;;;;;;;;;;;;;;;;6116639;23;20007;-89
2022/10/16 07:58:28;;;;;;;;;;;;;;;;;;6089296;23;19924;-88
2022/10/16 08:00:58;;;;;;;;;;;;;;;;;;6133917;23;19939;-88
2022/10/16 08:03:25;;;;;;;;;;;;;;;;;;6223900;22;19923;-89
2022/10/16 08:05:58;;;;;;;;;;;;;;;;;;6223887;23;19927;-89
2022/10/16 08:08:26;;;;;;;;;;;;;;;;;;6199394;23;19920;-89
2022/10/16 08:10:56;;;;;;;;;;;;;;;;;;6238108;22;19918;-89
2022/10/16 08:13:23;;;;;;;;;;;;;;;;;;6266675;22;19918;-89
2022/10/16 08:15:51;;;;;;;;;;;;;;;;;;6271852;22;19914;-89
2022/10/16 08:18:18;;;;;;;;;;;;;;;;;;6265905;22;19928;-90
2022/10/16 08:20:45;;;;;;;;;;;;;;;;;;6292729;22;19918;-90
2022/10/16 08:23:11;;;;;;;;;;;;;;;;;;6290249;22;19941;-89
2022/10/16 08:25:45;;;;;;;;;;;;;;;;;;6323147;22;19922;-89
2022/10/16 08:28:16;;;;;;;;;;;;;;;;;;6269264;22;19924;-88
2022/10/16 08:30:47;;;;;;;;;;;;;;;;;;6295148;22;19996;-89
2022/10/16 08:33:14;;;;;;;;;;;;;;;;;;6293408;22;20322;-88
2022/10/16 08:35:40;;;;;;;;;;;;;;;;;;6298797;22;20331;-88
2022/10/16 08:38:17;;;;;;;;;;;;;;;;;;6294062;22;19993;-88
2022/10/16 08:40:47;;;;;;;;;;;;;;;;;;6296110;22;19957;-89
2022/10/16 08:43:14;;;;;;;;;;;;;;;;;;6268701;22;20949;-89
2022/10/16 08:45:42;;;;;;;;;;;;;;;;;;6274052;22;20001;-88
2022/10/16 08:48:08;;;;;;;;;;;;;;;;;;6263832;22;19926;-88
2022/10/16 08:50:35;;;;;;;;;;;;;;;;;;6269239;22;19923;-88
2022/10/16 08:53:01;;;;;;;;;;;;;;;;;;6264822;22;19918;-89
2022/10/16 08:55:28;;;;;;;;;;;;;;;;;;6269785;22;19923;-89
2022/10/16 08:57:56;;;;;;;;;;;;;;;;;;6269580;22;19918;-89
2022/10/16 09:00:22;;;;;;;;;;;;;;;;;;6270032;22;20315;-89
2022/10/16 09:02:49;;;;;;;;;;;;;;;;;;6268714;22;19921;-88
2022/10/16 09:05:23;;;;;;;;;;;;;;;;;;6268504;22;19918;-89
2022/10/16 09:07:57;;;;;;;;;;;;;;;;;;6291599;22;20011;-89
2022/10/16 09:10:24;;;;;;;;;;;;;;;;;;6269489;22;19950;-89
2022/10/16 09:12:52;;;;;;;;;;;;;;;;;;6267889;22;19977;-89
2022/10/16 09:15:28;;;;;;;;;;;;;;;;;;6321782;22;19923;-89
2022/10/16 09:17:57;;;;;;;;;;;;;;;;;;6262139;22;20006;-89
2022/10/16 09:20:31;;;;;;;;;;;;;;;;;;6291117;22;19918;-88
2022/10/16 09:23:14;;;;;;;;;;;;;;;;;;6227126;22;20055;-88
2022/10/16 09:25:47;;;;;;;;;;;;;;;;;;6203187;23;20030;-89
2022/10/16 09:28:16;;;;;;;;;;;;;;;;;;6203227;23;19919;-89
2022/10/16 09:30:56;;;;;;;;;;;;;;;;;;6226508;23;20356;-90
2022/10/16 09:33:24;;;;;;;;;;;;;;;;;;6203401;23;20087;-88
2022/10/16 09:35:55;;;;;;;;;;;;;;;;;;6203208;23;19928;-89
2022/10/16 09:38:28;;;;;;;;;;;;;;;;;;6195802;23;19919;-89
2022/10/16 09:41:07;;;;;;;;;;;;;;;;;;6226272;23;19919;-89
2022/10/16 09:43:36;;;;;;;;;;;;;;;;;;6201950;23;19919;-89
2022/10/16 09:46:12;;;;;;;;;;;;;;;;;;6196944;23;19919;-90
2022/10/16 09:48:58;;;;;;;;;;;;;;;;;;6232353;23;19958;-90
2022/10/16 09:51:26;;;;;;;;;;;;;;;;;;6203159;23;20408;-91
2022/10/16 09:54:01;;;;;;;;;;;;;;;;;;6196549;22;19946;-89
2022/10/16 09:56:32;;;;;;;;;;;;;;;;;;6261657;22;20028;-90
2022/10/16 09:59:11;;;;;;;;;;;;;;;;;;6261584;22;19961;-89
2022/10/16 10:01:41;;;;;;;;;;;;;;;;;;6261160;22;19973;-89
2022/10/16 10:06:56;;;;;;;;;;;;;;;;;;6287646;22;20289;-88
2022/10/16 10:09:22;;;;;;;;;;;;;;;;;;6289752;22;19994;-89
2022/10/16 10:11:50;;;;;;;;;;;;;;;;;;6292283;22;19947;-90
2022/10/16 10:14:19;;;;;;;;;;;;;;;;;;6260214;22;19950;-89
2022/10/16 10:16:55;;;;;;;;;;;;;;;;;;6288547;22;19999;-90
2022/10/16 10:19:31;;;;;;;;;;;;;;;;;;6293862;22;19926;-89
2022/10/16 10:22:10;;;;;;;;;;;;;;;;;;6291067;22;19966;-90
2022/10/16 10:24:50;;;;;;;;;;;;;;;;;;6290789;22;19934;-90
2022/10/16 10:27:26;;;;;;;;;;;;;;;;;;6282638;22;19915;-90
2022/10/16 10:29:54;;;;;;;;;;;;;;;;;;6264007;22;19915;-89
2022/10/16 10:32:34;;;;;;;;;;;;;;;;;;6295017;22;19963;-90
2022/10/16 10:35:16;;;;;;;;;;;;;;;;;;6291463;22;19919;-90
2022/10/16 10:40:37;;;;;;;;;;;;;;;;;;6234984;22;20403;-90
2022/10/16 10:43:07;;;;;;;;;;;;;;;;;;6259671;22;20326;-90
2022/10/16 10:45:35;;;;;;;;;;;;;;;;;;6261096;22;19922;-89
2022/10/16 10:48:05;;;;;;;;;;;;;;;;;;6288857;22;19930;-89
2022/10/16 10:50:49;;;;;;;;;;;;;;;;;;6222943;23;20340;-89
2022/10/16 10:53:22;;;;;;;;;;;;;;;;;;6198855;23;19920;-88
2022/10/16 10:55:51;;;;;;;;;;;;;;;;;;6138129;23;20349;-90
2022/10/16 10:58:25;;;;;;;;;;;;;;;;;;6133049;23;19970;-89
2022/10/16 11:01:04;;;;;;;;;;;;;;;;;;6112420;23;20305;-89
2022/10/16 11:03:35;;;;;;;;;;;;;;;;;;6112892;23;20385;-89
2022/10/16 11:06:19;;;;;;;;;;;;;;;;;;6137047;23;19931;-89
2022/10/16 11:09:05;;;;;;;;;;;;;;;;;;6133955;23;19916;-89
2022/10/16 11:11:40;;;;;;;;;;;;;;;;;;6130191;23;19928;-89
2022/10/16 11:14:11;;;;;;;;;;;;;;;;;;6136309;23;19924;-89
2022/10/16 11:17:00;;;;;;;;;;;;;;;;;;6135335;23;19924;-89
2022/10/16 11:19:26;;;;;;;;;;;;;;;;;;6106743;23;19916;-89
2022/10/16 11:22:04;;;;;;;;;;;;;;;;;;6131415;23;19916;-89
2022/10/16 11:24:31;;;;;;;;;;;;;;;;;;6192910;23;19986;-90
2022/10/16 11:27:01;;;;;;;;;;;;;;;;;;6189733;22;19915;-90
2022/10/16 11:29:33;;;;;;;;;;;;;;;;;;6223214;22;19919;-90
2022/10/16 11:32:15;;;;;;;;;;;;;;;;;;6231603;22;19950;-89
2022/10/16 11:34:45;;;;;;;;;;;;;;;;;;6205145;22;19984;-91
2022/10/16 11:37:34;;;;;;;;;;;;;;;;;;6256922;22;20012;-90
2022/10/16 11:40:01;;;;;;;;;;;;;;;;;;6226671;22;19919;-90
2022/10/16 11:42:34;;;;;;;;;;;;;;;;;;6229160;22;19919;-90
2022/10/16 11:45:01;;;;;;;;;;;;;;;;;;6202246;22;19990;-90
2022/10/16 11:47:34;;;;;;;;;;;;;;;;;;6205614;22;19919;-90
2022/10/16 11:50:19;;;;;;;;;;;;;;;;;;6279858;22;19915;-90
2022/10/16 11:52:47;;;;;;;;;;;;;;;;;;6266469;22;20031;-90
2022/10/16 11:55:13;;;;;;;;;;;;;;;;;;6267042;22;19925;-90
2022/10/16 11:57:42;;;;;;;;;;;;;;;;;;6290690;22;19927;-89
2022/10/16 12:00:12;;;;;;;;;;;;;;;;;;6288397;22;19918;-90
2022/10/16 12:02:40;;;;;;;;;;;;;;;;;;6268293;22;20060;-89
2022/10/16 12:05:13;;;;;;;;;;;;;;;;;;6294057;22;20027;-90
2022/10/16 12:07:40;;;;;;;;;;;;;;;;;;6266854;22;20343;-90
2022/10/16 12:10:07;;;;;;;;;;;;;;;;;;6266354;22;19918;-90
2022/10/16 12:12:48;;;;;;;;;;;;;;;;;;6223737;23;19924;-90
2022/10/16 12:15:18;;;;;;;;;;;;;;;;;;6193719;23;20451;-91
2022/10/16 12:17:56;;;;;;;;;;;;;;;;;;;;;
2022/10/16 12:20:32;;;;;;;;;;;;;;;;;;6194771;23;19991;-90
2022/10/16 12:23:15;;;;;;;;;;;;;;;;;;6136034;23;19920;-90
2022/10/16 12:25:46;;;;;;;;;;;;;;;;;;6114677;23;19916;-90
2022/10/16 12:28:22;;;;;;;;;;;;;;;;;;6113155;23;19920;-90
2022/10/16 12:30:48;;;;;;;;;;;;;;;;;;6116603;23;20349;-90
2022/10/16 12:33:49;;;;;;;;;;;;;;;;;;6141294;23;19970;-89
2022/10/16 12:36:30;;;;;;;;;;;;;;;;;;6161773;23;20151;-90
2022/10/16 12:38:56;;;;;;;;;;;;;;;;;;6110794;23;20330;-90
2022/10/16 12:41:22;;;;;;;;;;;;;;;;;;6112653;23;19920;-90
2022/10/16 12:44:03;;;;;;;;;;;;;;;;;;6188754;22;20311;-90
2022/10/16 12:46:38;;;;;;;;;;;;;;;;;;6251704;22;19925;-89
2022/10/16 12:49:12;;;;;;;;;;;;;;;;;;6221879;22;19919;-88
2022/10/16 12:51:38;;;;;;;;;;;;;;;;;;6227611;22;19954;-89
2022/10/16 12:54:05;;;;;;;;;;;;;;;;;;6269339;22;19918;-89
2022/10/16 12:56:38;;;;;;;;;;;;;;;;;;6285182;22;20033;-89
2022/10/16 12:59:24;;;;;;;;;;;;;;;;;;6225185;23;19915;-89
2022/10/16 13:01:57;;;;;;;;;;;;;;;;;;6224487;23;19923;-90
2022/10/16 13:04:31;;;;;;;;;;;;;;;;;;6222984;23;19938;-89
2022/10/16 13:07:03;;;;;;;;;;;;;;;;;;6198574;23;20003;-89
2022/10/16 13:09:29;;;;;;;;;;;;;;;;;;6226019;23;19919;-89
2022/10/16 13:15:01;;;;;;;;;;;;;;;;;;6222643;23;19927;-89
2022/10/16 13:17:28;;;;;;;;;;;;;;;;;;6226113;23;19923;-89
2022/10/16 13:19:57;;;;;;;;;;;;;;;;;;6225349;23;19927;-90
2022/10/16 13:22:26;;;;;;;;;;;;;;;;;;6219826;22;19919;-89
2022/10/16 13:25:01;;;;;;;;;;;;;;;;;;6289347;22;19919;-90
2022/10/16 13:27:38;;;;;;;;;;;;;;;;;;6261911;22;19930;-90
2022/10/16 13:30:11;;;;;;;;;;;;;;;;;;6264388;22;19984;-90
2022/10/16 13:32:53;;;;;;;;;;;;;;;;;;6289744;22;20308;-89
2022/10/16 13:35:30;;;;;;;;;;;;;;;;;;6291912;22;19925;-90
2022/10/16 13:37:57;;;;;;;;;;;;;;;;;;6287600;22;19919;-89
2022/10/16 13:40:23;;;;;;;;;;;;;;;;;;6290881;22;20624;-89
2022/10/16 13:42:51;;;;;;;;;;;;;;;;;;6263330;22;19979;-89
2022/10/16 13:45:26;;;;;;;;;;;;;;;;;;6266066;22;20289;-89
2022/10/16 13:48:00;;;;;;;;;;;;;;;;;;6230889;22;19947;-89
2022/10/16 13:50:28;;;;;;;;;;;;;;;;;;6231563;22;19972;-90
2022/10/16 13:53:00;;;;;;;;;;;;;;;;;;6230366;22;19919;-89
2022/10/16 13:55:27;;;;;;;;;;;;;;;;;;6257613;22;19990;-89
2022/10/16 13:57:57;;;;;;;;;;;;;;;;;;6257758;22;19934;-90
2022/10/16 14:00:23;;;;;;;;;;;;;;;;;;6232815;22;20351;-89
2022/10/16 14:02:55;;;;;;;;;;;;;;;;;;6235514;22;19919;-89
2022/10/16 14:05:26;;;;;;;;;;;;;;;;;;6235946;22;19924;-89
2022/10/16 14:08:02;;;;;;;;;;;;;;;;;;6237067;22;19919;-89
2022/10/16 14:10:29;;;;;;;;;;;;;;;;;;6234742;22;20356;-88
2022/10/16 14:13:10;;;;;;;;;;;;;;;;;;6226873;23;20450;-89
2022/10/16 14:15:38;;;;;;;;;;;;;;;;;;6228384;23;20349;-89
2022/10/16 14:18:04;;;;;;;;;;;;;;;;;;6203409;22;19923;-90
2022/10/16 14:20:32;;;;;;;;;;;;;;;;;;6254425;22;19922;-89
2022/10/16 14:23:19;;;;;;;;;;;;;;;;;;;;;
2022/10/16 14:25:54;;;;;;;;;;;;;;;;;;6229902;22;19961;-89
2022/10/16 14:28:24;;;;;;;;;;;;;;;;;;6253966;22;20475;-89
2022/10/16 14:30:52;;;;;;;;;;;;;;;;;;6254560;22;19923;-89
2022/10/16 14:33:18;;;;;;;;;;;;;;;;;;6253409;22;20316;-88
2022/10/16 14:35:48;;;;;;;;;;;;;;;;;;6254236;22;20351;-89
2022/10/16 14:38:16;;;;;;;;;;;;;;;;;;6226411;22;19919;-90
2022/10/16 14:40:47;;;;;;;;;;;;;;;;;;6255030;22;20393;-88
2022/10/16 14:43:13;;;;;;;;;;;;;;;;;;6227382;22;20451;-89
2022/10/16 14:46:02;;;;;;;;;;;;;;;;;;6292133;22;20327;-89
2022/10/16 14:48:39;;;;;;;;;;;;;;;;;;6223132;23;20439;-89
2022/10/16 14:51:06;;;;;;;;;;;;;;;;;;6197903;23;19919;-89
2022/10/16 14:53:46;;;;;;;;;;;;;;;;;;6201759;23;20528;-88
2022/10/16 14:56:16;;;;;;;;;;;;;;;;;;6171932;23;19924;-88
2022/10/16 14:58:53;;;;;;;;;;;;;;;;;;6201689;23;19962;-88
2022/10/16 15:01:19;;;;;;;;;;;;;;;;;;6218731;23;19919;-88
2022/10/16 15:06:37;;;;;;;;;;;;;;;;;;6195573;23;20160;-90
2022/10/16 15:09:21;;;;;;;;;;;;;;;;;;6147729;23;19924;-89
2022/10/16 15:11:47;;;;;;;;;;;;;;;;;;6199834;23;20412;-89
2022/10/16 15:14:26;;;;;;;;;;;;;;;;;;6222636;23;20376;-89
2022/10/16 15:16:54;;;;;;;;;;;;;;;;;;6197144;23;19924;-89
2022/10/16 15:19:21;;;;;;;;;;;;;;;;;;6197618;23;19920;-89
2022/10/16 15:21:47;;;;;;;;;;;;;;;;;;6164014;23;20066;-89
2022/10/16 15:24:14;;;;;;;;;;;;;;;;;;6164516;23;20082;-89
2022/10/16 15:26:43;;;;;;;;;;;;;;;;;;6211890;22;20487;-89
2022/10/16 15:29:14;;;;;;;;;;;;;;;;;;6224324;22;19919;-89
2022/10/16 15:31:46;;;;;;;;;;;;;;;;;;6226509;22;19927;-88
2022/10/16 15:34:14;;;;;;;;;;;;;;;;;;6223189;22;19976;-89
2022/10/16 15:36:44;;;;;;;;;;;;;;;;;;6225270;22;20249;-89
2022/10/16 15:39:10;;;;;;;;;;;;;;;;;;6222711;22;20268;-88
2022/10/16 15:41:37;;;;;;;;;;;;;;;;;;6223882;22;19919;-89
2022/10/16 15:44:08;;;;;;;;;;;;;;;;;;6225105;22;20049;-88
2022/10/16 15:46:49;;;;;;;;;;;;;;;;;;6190118;23;19920;-89
2022/10/16 15:49:17;;;;;;;;;;;;;;;;;;6191857;23;19952;-89
2022/10/16 15:51:57;;;;;;;;;;;;;;;;;;6169891;23;19927;-89
2022/10/16 15:54:30;;;;;;;;;;;;;;;;;;6219519;23;20248;-89
2022/10/16 15:57:07;;;;;;;;;;;;;;;;;;;;;
2022/10/16 15:59:52;;;;;;;;;;;;;;;;;;6223512;23;19965;-89
2022/10/16 16:02:19;;;;;;;;;;;;;;;;;;6194193;23;19970;-89
2022/10/16 16:05:01;;;;;;;;;;;;;;;;;;6198823;23;19966;-89
2022/10/16 16:07:29;;;;;;;;;;;;;;;;;;6196931;23;19920;-90
2022/10/16 16:09:58;;;;;;;;;;;;;;;;;;6217906;23;19915;-89
2022/10/16 16:12:30;;;;;;;;;;;;;;;;;;6224838;23;19919;-89
2022/10/16 16:15:01;;;;;;;;;;;;;;;;;;6221595;23;19925;-90
2022/10/16 16:17:46;;;;;;;;;;;;;;;;;;6235250;23;20381;-89
2022/10/16 16:20:15;;;;;;;;;;;;;;;;;;6197035;23;19924;-89
2022/10/16 16:22:42;;;;;;;;;;;;;;;;;;6198404;23;20019;-88
2022/10/16 16:25:17;;;;;;;;;;;;;;;;;;6310464;22;19918;-89
2022/10/16 16:27:48;;;;;;;;;;;;;;;;;;6293480;22;19919;-89
2022/10/16 16:30:18;;;;;;;;;;;;;;;;;;6288052;22;20284;-89
2022/10/16 16:32:56;;;;;;;;;;;;;;;;;;6295057;22;19926;-90
2022/10/16 16:35:22;;;;;;;;;;;;;;;;;;6265401;22;20013;-89
2022/10/16 16:37:57;;;;;;;;;;;;;;;;;;6293882;22;20434;-90
2022/10/16 16:40:25;;;;;;;;;;;;;;;;;;6282428;22;20333;-89
2022/10/16 16:42:52;;;;;;;;;;;;;;;;;;6264691;22;20380;-89
2022/10/16 16:45:34;;;;;;;;;;;;;;;;;;6297495;22;19926;-89
2022/10/16 16:48:08;;;;;;;;;;;;;;;;;;6315570;22;19942;-89
2022/10/16 16:50:47;;;;;;;;;;;;;;;;;;6291686;22;19929;-89
2022/10/16 16:53:15;;;;;;;;;;;;;;;;;;6258556;22;20367;-89
2022/10/16 16:55:44;;;;;;;;;;;;;;;;;;6291568;22;20466;-89
2022/10/16 16:58:13;;;;;;;;;;;;;;;;;;6320195;22;20327;-89
2022/10/16 17:00:54;;;;;;;;;;;;;;;;;;6294622;22;19973;-90
2022/10/16 17:03:21;;;;;;;;;;;;;;;;;;6291414;22;19922;-90
2022/10/16 17:05:47;;;;;;;;;;;;;;;;;;6270375;22;19918;-89
2022/10/16 17:08:17;;;;;;;;;;;;;;;;;;6290618;22;20252;-89
2022/10/16 17:10:52;;;;;;;;;;;;;;;;;;6269097;22;21788;-89
2022/10/16 17:13:37;;;;;;;;;;;;;;;;;;6322921;22;20368;-89
2022/10/16 17:16:05;;;;;;;;;;;;;;;;;;6287414;22;19929;-89
2022/10/16 17:18:33;;;;;;;;;;;;;;;;;;6263292;22;20678;-89
2022/10/16 17:21:02;;;;;;;;;;;;;;;;;;6259801;22;20340;-90
2022/10/16 17:23:29;;;;;;;;;;;;;;;;;;6255264;22;19918;-90
2022/10/16 17:25:59;;;;;;;;;;;;;;;;;;6258024;22;19919;-90
2022/10/16 17:28:30;;;;;;;;;;;;;;;;;;6286223;22;20343;-89